createdAt,value
2019-04-07T00:00:34.737Z,72.97
2019-04-07T00:03:06.912Z,68.57
2019-04-07T00:05:38.913Z,70.97
2019-04-07T00:08:11.149Z,64.70
2019-04-07T00:10:42.653Z,76.07
2019-04-07T00:13:14.246Z,61.13
2019-04-07T00:15:46.284Z,69.70
2019-04-07T00:18:17.978Z,71.80
2019-04-07T00:20:49.603Z,64.47
2019-04-07T00:23:21.381Z,68.73
2019-04-07T00:25:54.123Z,79.20
2019-04-07T00:28:25.620Z,68.07
2019-04-07T00:30:57.389Z,73.73
2019-04-07T00:33:28.914Z,66.70
2019-04-07T00:36:01.868Z,69.00
2019-04-07T00:38:35.978Z,64.73
2019-04-07T00:41:07.911Z,72.07
2019-04-07T00:43:39.673Z,62.60
2019-04-07T00:46:11.537Z,65.83
2019-04-07T00:48:44.953Z,59.07
2019-04-07T00:51:16.756Z,69.03
2019-04-07T00:53:48.514Z,65.50
2019-04-07T00:56:20.520Z,64.27
2019-04-07T00:58:52.407Z,68.20
2019-04-07T01:01:25.065Z,64.27
2019-04-07T01:03:56.851Z,61.40
2019-04-07T01:06:28.367Z,69.00
2019-04-07T01:09:00.276Z,67.63
2019-04-07T01:11:33.162Z,64.93
2019-04-07T01:14:04.871Z,67.80
2019-04-07T01:16:36.400Z,66.47
2019-04-07T01:19:07.929Z,66.53
2019-04-07T01:21:40.361Z,69.20
2019-04-07T01:24:12.302Z,64.77
2019-04-07T01:26:44.676Z,64.53
2019-04-07T01:29:16.825Z,69.00
2019-04-07T01:31:48.489Z,65.87
2019-04-07T01:34:20.631Z,53.10
2019-04-07T01:36:52.102Z,60.33
2019-04-07T01:39:24.100Z,62.47
2019-04-07T01:42:17.244Z,72.10
2019-04-07T01:45:07.282Z,61.47
2019-04-07T01:47:48.639Z,57.60
2019-04-07T01:50:54.443Z,77.90
2019-04-07T01:53:51.009Z,65.80
2019-04-07T01:56:48.147Z,80.13
2019-04-07T01:59:44.387Z,66.67
2019-04-07T02:02:39.176Z,65.73
2019-04-07T02:05:43.160Z,72.67
2019-04-07T02:08:37.422Z,64.90
2019-04-07T02:11:27.763Z,69.43
2019-04-07T02:14:18.249Z,68.37
2019-04-07T02:17:06.519Z,69.03
2019-04-07T02:19:46.006Z,67.00
2019-04-07T02:22:32.206Z,67.57
2019-04-07T02:25:22.830Z,67.73
2019-04-07T02:28:01.112Z,69.57
2019-04-07T02:31:00.796Z,70.73
2019-04-07T02:33:54.451Z,66.83
2019-04-07T02:36:40.727Z,76.17
2019-04-07T02:39:34.673Z,65.87
2019-04-07T02:42:25.055Z,73.33
2019-04-07T02:45:15.099Z,72.40
2019-04-07T02:48:12.523Z,72.90
2019-04-07T02:51:10.419Z,70.27
2019-04-07T02:54:03.759Z,73.20
2019-04-07T02:57:09.993Z,68.03
2019-04-07T03:00:01.077Z,63.33
2019-04-07T03:02:55.831Z,67.33
2019-04-07T03:05:56.437Z,73.40
2019-04-07T03:08:36.190Z,77.20
2019-04-07T03:11:26.515Z,69.57
2019-04-07T03:14:04.513Z,89.20
2019-04-07T03:17:08.789Z,77.00
2019-04-07T03:19:56.159Z,73.50
2019-04-07T03:22:38.473Z,79.77
2019-04-07T03:25:28.775Z,80.80
2019-04-07T03:28:17.391Z,70.43
2019-04-07T03:31:12.731Z,73.87
2019-04-07T03:33:52.290Z,73.97
2019-04-07T03:37:09.434Z,75.53
2019-04-07T03:39:31.724Z,79.23
2019-04-07T03:42:21.506Z,75.73
2019-04-07T03:45:08.286Z,89.00
2019-04-07T03:47:44.238Z,79.63
2019-04-07T03:50:31.595Z,83.13
2019-04-07T03:53:28.558Z,77.77
2019-04-07T03:56:10.162Z,84.80
2019-04-07T03:59:03.676Z,74.13
2019-04-07T04:01:54.303Z,75.30
2019-04-07T04:04:43.564Z,77.10
2019-04-07T04:07:30.709Z,70.43
2019-04-07T04:10:06.643Z,77.73
2019-04-07T04:12:51.207Z,79.93
2019-04-07T04:15:44.780Z,73.57
2019-04-07T04:18:16.305Z,74.10
2019-04-07T04:20:48.612Z,78.73
2019-04-07T04:23:20.099Z,70.77
2019-04-07T04:25:52.443Z,74.53
2019-04-07T04:28:24.271Z,77.80
2019-04-07T04:30:56.682Z,80.40
2019-04-07T04:33:28.290Z,80.40
2019-04-07T04:36:00.560Z,74.30
2019-04-07T04:38:32.349Z,81.90
2019-04-07T04:41:04.857Z,81.23
2019-04-07T04:43:36.532Z,82.20
2019-04-07T04:46:10.365Z,74.20
2019-04-07T04:48:41.140Z,81.27
2019-04-07T04:51:13.188Z,70.60
2019-04-07T04:53:45.676Z,84.60
2019-04-07T04:56:17.347Z,73.83
2019-04-07T04:58:50.656Z,73.50
2019-04-07T05:01:21.989Z,77.17
2019-04-07T05:03:53.936Z,84.03
2019-04-07T05:06:25.486Z,72.77
2019-04-07T05:08:57.720Z,75.50
2019-04-07T05:11:29.387Z,86.37
2019-04-07T05:14:00.894Z,81.40
2019-04-07T05:16:33.219Z,83.73
2019-04-07T05:19:04.951Z,75.40
2019-04-07T05:21:36.432Z,79.27
2019-04-07T05:24:07.903Z,74.97
2019-04-07T05:26:40.604Z,84.50
2019-04-07T05:29:12.105Z,79.10
2019-04-07T05:31:43.857Z,82.60
2019-04-07T05:34:18.869Z,77.47
2019-04-07T05:36:48.670Z,69.00
2019-04-07T05:39:20.773Z,75.20
2019-04-07T05:41:53.637Z,78.00
2019-04-07T05:44:25.030Z,77.80
2019-04-07T05:46:57.001Z,75.90
2019-04-07T05:49:28.565Z,73.57
2019-04-07T05:52:04.209Z,67.80
2019-04-07T05:54:33.990Z,69.40
2019-04-07T05:57:05.835Z,70.87
2019-04-07T05:59:37.670Z,68.43
2019-04-07T06:02:09.325Z,78.30
2019-04-07T06:04:41.539Z,71.83
2019-04-07T06:07:13.766Z,69.80
2019-04-07T06:09:51.249Z,69.60
2019-04-07T06:12:21.629Z,72.07
2019-04-07T06:14:53.201Z,67.97
2019-04-07T06:17:26.385Z,77.33
2019-04-07T06:19:57.938Z,62.90
2019-04-07T06:22:30.580Z,73.90
2019-04-07T06:25:05.280Z,66.50
2019-04-07T06:27:36.512Z,68.10
2019-04-07T06:30:10.791Z,62.00
2019-04-07T06:32:43.693Z,73.60
2019-04-07T06:35:15.929Z,70.40
2019-04-07T06:37:48.730Z,64.50
2019-04-07T06:40:21.315Z,70.47
2019-04-07T06:42:53.450Z,63.53
2019-04-07T06:45:29.396Z,62.07
2019-04-07T06:48:07.015Z,53.70
2019-04-07T06:50:57.891Z,56.70
2019-04-07T06:53:50.418Z,54.07
2019-04-07T06:56:33.432Z,55.53
2019-04-07T06:59:22.131Z,60.97
2019-04-07T07:02:12.094Z,70.27
2019-04-07T07:05:01.666Z,52.87
2019-04-07T07:07:57.520Z,56.80
2019-04-07T07:10:51.087Z,53.77
2019-04-07T07:13:33.364Z,56.43
2019-04-07T07:16:30.550Z,51.13
2019-04-07T07:19:19.806Z,52.33
2019-04-07T07:22:15.532Z,50.77
2019-04-07T07:24:46.794Z,47.10
2019-04-07T07:27:17.589Z,46.20
2019-04-07T07:29:52.508Z,50.90
2019-04-07T07:32:22.627Z,51.30
2019-04-07T07:34:55.199Z,50.70
2019-04-07T07:37:28.103Z,42.37
2019-04-07T07:39:59.709Z,48.07
2019-04-07T07:42:32.053Z,50.40
2019-04-07T07:45:03.746Z,43.50
2019-04-07T07:47:35.287Z,41.33
2019-04-07T07:50:08.178Z,44.87
2019-04-07T07:52:40.369Z,44.70
2019-04-07T07:55:12.074Z,46.67
2019-04-07T07:57:43.765Z,43.50
2019-04-07T08:00:16.975Z,39.00
2019-04-07T08:02:50.881Z,42.73
2019-04-07T08:05:23.880Z,44.30
2019-04-07T08:07:57.598Z,35.70
2019-04-07T08:10:29.149Z,33.97
2019-04-07T08:13:02.663Z,32.57
2019-04-07T08:15:35.072Z,37.60
2019-04-07T08:18:08.394Z,43.00
2019-04-07T08:20:40.910Z,36.80
2019-04-07T08:23:14.329Z,36.23
2019-04-07T08:25:46.104Z,48.63
2019-04-07T08:28:20.366Z,38.13
2019-04-07T08:30:52.190Z,37.93
2019-04-07T08:33:23.802Z,35.37
2019-04-07T08:35:56.203Z,37.90
2019-04-07T08:38:28.378Z,46.57
2019-04-07T08:41:00.171Z,35.13
2019-04-07T08:43:31.964Z,33.53
2019-04-07T08:46:04.693Z,43.10
2019-04-07T08:48:37.443Z,43.00
2019-04-07T08:51:08.960Z,30.80
2019-04-07T08:53:43.601Z,45.50
2019-04-07T08:56:13.782Z,35.50
2019-04-07T08:58:47.829Z,33.83
2019-04-07T09:01:21.024Z,31.40
2019-04-07T09:03:52.739Z,29.87
2019-04-07T09:06:25.566Z,37.07
2019-04-07T09:08:57.506Z,33.87
2019-04-07T09:11:29.295Z,36.07
2019-04-07T09:14:00.857Z,36.40
2019-04-07T09:16:54.258Z,42.43
2019-04-07T09:19:40.434Z,30.80
2019-04-07T09:22:20.095Z,34.87
2019-04-07T09:24:58.826Z,32.63
2019-04-07T09:27:38.760Z,38.13
2019-04-07T09:30:21.241Z,27.70
2019-04-07T09:33:10.394Z,32.00
2019-04-07T09:35:58.891Z,25.80
2019-04-07T09:38:42.380Z,24.57
2019-04-07T09:41:33.662Z,29.23
2019-04-07T09:44:33.989Z,27.50
2019-04-07T09:47:17.912Z,26.67
2019-04-07T09:50:09.111Z,26.20
2019-04-07T09:53:18.898Z,24.37
2019-04-07T09:56:16.180Z,27.43
2019-04-07T09:59:10.054Z,32.03
2019-04-07T10:02:06.001Z,22.83
2019-04-07T10:04:50.461Z,28.20
2019-04-07T10:07:46.878Z,26.17
2019-04-07T10:13:25.213Z,36.67
2019-04-07T10:16:08.878Z,23.57
2019-04-07T10:18:55.157Z,19.43
2019-04-07T10:21:55.132Z,17.53
2019-04-07T10:24:40.452Z,21.70
2019-04-07T10:27:46.465Z,16.63
2019-04-07T10:30:27.076Z,16.70
2019-04-07T10:33:24.390Z,23.10
2019-04-07T10:36:08.033Z,16.60
2019-04-07T10:38:52.673Z,17.67
2019-04-07T10:41:53.310Z,17.07
2019-04-07T10:44:35.825Z,23.23
2019-04-07T10:47:26.798Z,15.63
2019-04-07T10:50:36.851Z,24.63
2019-04-07T10:53:34.126Z,25.87
2019-04-07T10:56:19.915Z,19.70
2019-04-07T10:59:22.807Z,21.40
2019-04-07T11:02:04.201Z,21.00
2019-04-07T11:04:53.328Z,13.77
2019-04-07T11:07:40.483Z,18.33
2019-04-07T11:10:34.279Z,18.50
2019-04-07T11:13:28.994Z,14.90
2019-04-07T11:16:22.391Z,16.50
2019-04-07T11:19:22.013Z,19.57
2019-04-07T11:22:04.548Z,20.00
2019-04-07T11:24:43.380Z,17.27
2019-04-07T11:27:52.833Z,18.37
2019-04-07T11:30:49.901Z,17.73
2019-04-07T11:33:46.061Z,16.73
2019-04-07T11:36:48.737Z,17.80
2019-04-07T11:39:30.740Z,16.23
2019-04-07T11:42:30.647Z,16.50
2019-04-07T11:45:20.660Z,15.03
2019-04-07T11:48:02.441Z,22.77
2019-04-07T11:51:03.230Z,15.70
2019-04-07T11:53:53.751Z,17.63
2019-04-07T11:56:37.223Z,16.37
2019-04-07T11:59:32.974Z,14.87
2019-04-07T12:02:22.856Z,19.73
2019-04-07T12:05:18.763Z,18.50
2019-04-07T12:08:01.809Z,21.03
2019-04-07T12:10:58.589Z,16.63
2019-04-07T12:13:42.878Z,17.60
2019-04-07T12:16:50.603Z,17.00
2019-04-07T12:19:33.385Z,21.33
2019-04-07T12:22:22.814Z,20.93
2019-04-07T12:25:23.261Z,21.73
2019-04-07T12:28:18.135Z,14.63
2019-04-07T12:31:02.597Z,18.40
2019-04-07T12:34:02.887Z,19.23
2019-04-07T12:36:56.242Z,17.70
2019-04-07T12:39:50.949Z,22.53
2019-04-07T12:42:40.676Z,17.00
2019-04-07T12:45:31.903Z,20.03
2019-04-07T12:48:19.975Z,16.70
2019-04-07T12:51:22.427Z,18.63
2019-04-07T12:54:23.323Z,16.07
2019-04-07T12:57:23.079Z,20.87
2019-04-07T13:00:13.575Z,18.20
2019-04-07T13:03:04.556Z,21.63
2019-04-07T13:06:07.612Z,14.47
2019-04-07T13:08:57.174Z,21.70
2019-04-07T13:11:45.716Z,15.37
2019-04-07T13:14:40.983Z,17.47
2019-04-07T13:17:35.488Z,17.13
2019-04-07T13:20:36.563Z,15.30
2019-04-07T13:23:18.727Z,25.50
2019-04-07T13:26:02.120Z,15.80
2019-04-07T13:28:58.745Z,21.50
2019-04-07T13:31:42.789Z,16.03
2019-04-07T13:34:45.290Z,16.30
2019-04-07T13:37:42.377Z,22.07
2019-04-07T13:40:21.822Z,28.83
2019-04-07T13:43:04.330Z,14.27
2019-04-07T13:45:54.509Z,19.63
2019-04-07T13:48:49.536Z,18.00
2019-04-07T13:51:37.048Z,23.47
2019-04-07T13:54:23.002Z,16.67
2019-04-07T13:57:26.118Z,16.57
2019-04-07T14:00:28.780Z,18.03
2019-04-07T14:03:10.143Z,18.70
2019-04-07T14:06:01.192Z,16.17
2019-04-07T14:08:53.474Z,15.30
2019-04-07T14:12:04.225Z,15.90
2019-04-07T14:15:04.092Z,13.07
2019-04-07T14:18:06.616Z,15.63
2019-04-07T14:20:47.475Z,14.00
2019-04-07T14:23:47.070Z,14.93
2019-04-07T14:26:36.550Z,14.37
2019-04-07T14:29:33.943Z,18.63
2019-04-07T14:32:31.291Z,15.33
2019-04-07T14:35:12.974Z,18.53
2019-04-07T14:38:09.953Z,15.30
2019-04-07T14:41:09.753Z,15.70
2019-04-07T14:44:00.424Z,17.83
2019-04-07T14:46:54.129Z,14.90
2019-04-07T14:49:35.847Z,22.07
2019-04-07T14:52:39.397Z,19.93
2019-04-07T14:55:31.157Z,16.03
2019-04-07T14:58:21.679Z,21.77
2019-04-07T15:01:04.747Z,15.87
2019-04-07T15:03:33.814Z,13.93
2019-04-07T15:06:06.584Z,18.50
2019-04-07T15:08:49.805Z,18.17
2019-04-07T15:11:31.325Z,18.10
2019-04-07T15:14:04.194Z,15.20
2019-04-07T15:16:36.678Z,14.77
2019-04-07T15:19:08.480Z,18.63
2019-04-07T15:21:40.155Z,16.60
2019-04-07T15:24:11.959Z,15.73
2019-04-07T15:26:46.965Z,14.23
2019-04-07T15:29:16.627Z,24.70
2019-04-07T15:31:50.825Z,15.70
2019-04-07T15:34:21.228Z,16.23
2019-04-07T15:36:52.759Z,15.80
2019-04-07T15:39:27.915Z,14.27
2019-04-07T15:41:57.748Z,17.47
2019-04-07T15:44:29.222Z,17.67
2019-04-07T15:47:00.637Z,17.67
2019-04-07T15:49:32.194Z,14.20
2019-04-07T15:52:07.668Z,15.73
2019-04-07T15:54:37.152Z,15.60
2019-04-07T15:57:08.931Z,14.63
2019-04-07T15:59:42.390Z,15.80
2019-04-07T16:02:14.223Z,18.50
2019-04-07T16:04:52.971Z,16.90
2019-04-07T16:07:24.571Z,19.87
2019-04-07T16:09:57.016Z,19.23
2019-04-07T16:12:30.913Z,22.33
2019-04-07T16:15:02.709Z,16.67
2019-04-07T16:17:34.873Z,17.50
2019-04-07T16:20:20.663Z,14.10
2019-04-07T16:22:46.588Z,14.97
2019-04-07T16:25:25.407Z,18.77
2019-04-07T16:27:54.862Z,21.47
2019-04-07T16:30:26.568Z,21.87
2019-04-07T16:33:03.934Z,40.20
2019-04-07T16:35:34.559Z,19.97
2019-04-07T16:38:07.392Z,24.50
2019-04-07T16:40:41.937Z,21.43
2019-04-07T16:43:15.410Z,25.33
2019-04-07T16:45:47.177Z,25.13
2019-04-07T16:48:19.678Z,22.10
2019-04-07T16:50:54.747Z,21.97
2019-04-07T16:53:24.813Z,20.20
2019-04-07T16:55:57.479Z,24.60
2019-04-07T16:58:33.166Z,17.77
2019-04-07T17:01:12.089Z,24.87
2019-04-07T17:03:44.252Z,23.50
2019-04-07T17:06:16.002Z,22.27
2019-04-07T17:08:51.154Z,18.33
2019-04-07T17:11:21.364Z,20.27
2019-04-07T17:13:54.627Z,20.00
2019-04-07T17:16:26.879Z,22.67
2019-04-07T17:19:00.968Z,22.00
2019-04-07T17:21:37.677Z,22.13
2019-04-07T17:24:09.147Z,23.27
2019-04-07T17:26:41.529Z,21.10
2019-04-07T17:29:20.209Z,28.47
2019-04-07T17:31:52.191Z,22.80
2019-04-07T17:34:24.071Z,21.73
2019-04-07T17:36:57.665Z,20.50
2019-04-07T17:39:48.400Z,23.73
2019-04-07T17:42:25.919Z,21.77
2019-04-07T17:45:13.663Z,20.60
2019-04-07T17:48:06.882Z,19.13
2019-04-07T17:51:07.324Z,24.93
2019-04-07T17:54:04.734Z,29.30
2019-04-07T17:57:10.638Z,20.70
2019-04-07T17:59:58.282Z,24.43
2019-04-07T18:03:09.864Z,22.63
2019-04-07T18:06:17.277Z,26.60
2019-04-07T18:09:07.881Z,32.70
2019-04-07T18:12:03.081Z,23.80
2019-04-07T18:14:56.946Z,20.63
2019-04-07T18:17:49.594Z,24.23
2019-04-07T18:20:40.483Z,27.77
2019-04-07T18:23:42.826Z,20.90
2019-04-07T18:26:28.566Z,22.73
2019-04-07T18:29:10.151Z,23.23
2019-04-07T18:31:57.860Z,29.93
2019-04-07T18:34:46.367Z,25.17
2019-04-07T18:37:38.529Z,21.20
2019-04-07T18:40:27.188Z,23.40
2019-04-07T18:43:24.536Z,30.00
2019-04-07T18:46:13.011Z,31.40
2019-04-07T18:49:04.734Z,24.23
2019-04-07T18:52:09.972Z,27.20
2019-04-07T18:54:51.591Z,23.80
2019-04-07T18:57:33.442Z,24.57
2019-04-07T19:00:31.624Z,27.50
2019-04-07T19:03:22.907Z,21.70
2019-04-07T19:06:12.780Z,24.27
2019-04-07T19:09:16.682Z,27.47
2019-04-07T19:12:13.274Z,23.13
2019-04-07T19:15:08.798Z,32.33
2019-04-07T19:18:06.880Z,24.67
2019-04-07T19:20:53.649Z,22.60
2019-04-07T19:23:45.131Z,22.83
2019-04-07T19:26:52.241Z,22.07
2019-04-07T19:29:53.211Z,19.80
2019-04-07T19:32:42.648Z,18.77
2019-04-07T19:35:43.334Z,24.20
2019-04-07T19:38:51.158Z,20.03
2019-04-07T19:41:38.186Z,21.67
2019-04-07T19:44:40.010Z,20.77
2019-04-07T19:47:20.538Z,28.10
2019-04-07T19:50:05.252Z,23.50
2019-04-07T19:52:54.328Z,22.80
2019-04-07T19:55:56.292Z,29.63
2019-04-07T19:58:47.056Z,21.47
2019-04-07T20:01:44.408Z,20.47
2019-04-07T20:04:35.326Z,28.03
2019-04-07T20:07:15.866Z,19.47
2019-04-07T20:09:56.808Z,31.80
2019-04-07T20:12:58.372Z,23.03
2019-04-07T20:15:42.977Z,25.87
2019-04-07T20:18:25.521Z,29.67
2019-04-07T20:21:13.195Z,24.40
2019-04-07T20:24:11.062Z,24.40
2019-04-07T20:26:52.272Z,25.63
2019-04-07T20:29:43.524Z,24.47
2019-04-07T20:32:39.884Z,21.20
2019-04-07T20:35:31.982Z,22.07
2019-04-07T20:38:27.318Z,19.27
2019-04-07T20:41:33.731Z,21.67
2019-04-07T20:44:18.878Z,22.10
2019-04-07T20:47:21.478Z,19.87
2019-04-07T20:50:22.544Z,27.30
2019-04-07T20:53:32.750Z,19.30
2019-04-07T20:56:27.203Z,20.80
2019-04-07T20:59:08.654Z,25.40
2019-04-07T21:02:19.155Z,19.83
2019-04-07T21:05:09.058Z,32.00
2019-04-07T21:08:00.738Z,28.70
2019-04-07T21:11:07.466Z,18.60
2019-04-07T21:13:59.447Z,17.20
2019-04-07T21:16:53.092Z,19.60
2019-04-07T21:19:44.342Z,19.33
2019-04-07T21:22:43.233Z,20.00
2019-04-07T21:25:33.900Z,23.50
2019-04-07T21:28:28.805Z,20.40
2019-04-07T21:31:19.997Z,18.47
2019-04-07T21:34:03.412Z,25.17
2019-04-07T21:36:59.328Z,27.73
2019-04-07T21:39:39.597Z,23.93
2019-04-07T21:42:27.452Z,21.67
2019-04-07T21:45:32.684Z,23.87
2019-04-07T21:48:10.068Z,22.00
2019-04-07T21:50:51.871Z,25.60
2019-04-07T21:53:43.147Z,26.80
2019-04-07T21:56:23.546Z,21.67
2019-04-07T21:59:05.425Z,24.10
2019-04-07T22:02:00.838Z,26.87
2019-04-07T22:04:57.365Z,27.70
2019-04-07T22:07:35.590Z,22.73
2019-04-07T22:10:09.439Z,25.43
2019-04-07T22:12:41.037Z,21.30
2019-04-07T22:15:14.194Z,22.80
2019-04-07T22:17:46.269Z,22.23
2019-04-07T22:20:20.094Z,22.53
2019-04-07T22:22:51.322Z,23.40
2019-04-07T22:25:32.627Z,26.80
2019-04-07T22:28:04.072Z,24.10
2019-04-07T22:30:39.921Z,26.17
2019-04-07T22:33:10.419Z,23.80
2019-04-07T22:35:44.073Z,35.83
2019-04-07T22:38:17.244Z,27.20
2019-04-07T22:40:48.284Z,25.83
2019-04-07T22:43:20.292Z,28.23
2019-04-07T22:45:59.289Z,25.43
2019-04-07T22:48:27.834Z,27.57
2019-04-07T22:50:59.201Z,26.70
2019-04-07T22:53:31.400Z,28.40
2019-04-07T22:56:06.369Z,32.70
2019-04-07T22:58:36.203Z,29.80
2019-04-07T23:01:07.747Z,27.63
2019-04-07T23:03:39.258Z,27.63
2019-04-07T23:06:10.792Z,28.43
2019-04-07T23:08:43.213Z,26.17
2019-04-07T23:11:14.722Z,31.93
2019-04-07T23:13:47.193Z,27.47
2019-04-07T23:16:19.001Z,29.03
2019-04-07T23:18:52.107Z,27.50
2019-04-07T23:21:24.771Z,31.17
2019-04-07T23:23:56.193Z,33.47
2019-04-07T23:26:27.600Z,30.57
2019-04-07T23:28:59.025Z,36.57
2019-04-07T23:31:32.155Z,30.43
2019-04-07T23:34:04.681Z,30.13
2019-04-07T23:36:36.216Z,34.83
2019-04-07T23:39:08.728Z,33.33
2019-04-07T23:41:40.089Z,32.00
2019-04-07T23:44:11.533Z,30.60
2019-04-07T23:46:43.533Z,34.53
2019-04-07T23:49:15.234Z,31.00
2019-04-07T23:51:47.582Z,33.17
2019-04-07T23:54:19.024Z,31.03
2019-04-07T23:56:50.411Z,36.23
2019-04-07T23:59:22.750Z,33.30
